sensor_id;sensor_type;location;lat;lon;timestamp;temperature;humidity
69324;DHT22;56470;47.350;8.718;2023-04-24T00:00:05;14.11;69.91
69324;DHT22;56470;47.350;8.718;2023-04-24T00:02:34;14.05;69.63
69324;DHT22;56470;47.350;8.718;2023-04-24T00:05:00;14.00;69.62
69324;DHT22;56470;47.350;8.718;2023-04-24T00:07:28;14.00;69.85
69324;DHT22;56470;47.350;8.718;2023-04-24T00:09:54;13.95;69.73
69324;DHT22;56470;47.350;8.718;2023-04-24T00:12:19;13.94;69.99
69324;DHT22;56470;47.350;8.718;2023-04-24T00:14:45;13.84;69.91
69324;DHT22;56470;47.350;8.718;2023-04-24T00:17:13;13.82;70.20
69324;DHT22;56470;47.350;8.718;2023-04-24T00:19:39;13.88;70.18
69324;DHT22;56470;47.350;8.718;2023-04-24T00:22:04;13.94;69.92
69324;DHT22;56470;47.350;8.718;2023-04-24T00:24:30;13.97;69.69
69324;DHT22;56470;47.350;8.718;2023-04-24T00:26:55;13.92;69.43
69324;DHT22;56470;47.350;8.718;2023-04-24T00:29:21;13.91;69.59
69324;DHT22;56470;47.350;8.718;2023-04-24T00:31:47;13.87;69.09
69324;DHT22;56470;47.350;8.718;2023-04-24T00:34:12;13.85;69.24
69324;DHT22;56470;47.350;8.718;2023-04-24T00:36:38;13.89;69.04
69324;DHT22;56470;47.350;8.718;2023-04-24T00:39:04;13.87;68.84
69324;DHT22;56470;47.350;8.718;2023-04-24T00:41:29;13.91;69.01
69324;DHT22;56470;47.350;8.718;2023-04-24T00:43:55;13.85;68.89
69324;DHT22;56470;47.350;8.718;2023-04-24T00:46:21;13.85;68.89
69324;DHT22;56470;47.350;8.718;2023-04-24T00:48:46;13.88;68.84
69324;DHT22;56470;47.350;8.718;2023-04-24T00:51:12;13.91;68.56
69324;DHT22;56470;47.350;8.718;2023-04-24T00:53:37;13.89;68.54
69324;DHT22;56470;47.350;8.718;2023-04-24T00:56:04;13.89;68.73
69324;DHT22;56470;47.350;8.718;2023-04-24T00:58:29;13.89;68.40
69324;DHT22;56470;47.350;8.718;2023-04-24T01:00:56;13.89;68.37
69324;DHT22;56470;47.350;8.718;2023-04-24T01:03:25;13.88;68.49
69324;DHT22;56470;47.350;8.718;2023-04-24T01:05:52;13.78;68.22
69324;DHT22;56470;47.350;8.718;2023-04-24T01:08:20;13.77;68.58
69324;DHT22;56470;47.350;8.718;2023-04-24T01:10:48;13.74;68.30
69324;DHT22;56470;47.350;8.718;2023-04-24T01:13:14;13.67;68.52
69324;DHT22;56470;47.350;8.718;2023-04-24T01:15:40;13.60;68.89
69324;DHT22;56470;47.350;8.718;2023-04-24T01:18:05;13.50;69.05
69324;DHT22;56470;47.350;8.718;2023-04-24T01:20:31;13.38;69.11
69324;DHT22;56470;47.350;8.718;2023-04-24T01:22:57;13.33;69.39
69324;DHT22;56470;47.350;8.718;2023-04-24T01:25:24;13.26;69.77
69324;DHT22;56470;47.350;8.718;2023-04-24T01:27:50;13.23;69.83
69324;DHT22;56470;47.350;8.718;2023-04-24T01:30:17;13.22;69.84
69324;DHT22;56470;47.350;8.718;2023-04-24T01:32:42;13.12;70.01
69324;DHT22;56470;47.350;8.718;2023-04-24T01:35:10;13.09;70.40
69324;DHT22;56470;47.350;8.718;2023-04-24T01:37:36;13.06;70.87
69324;DHT22;56470;47.350;8.718;2023-04-24T01:40:07;13.11;70.91
69324;DHT22;56470;47.350;8.718;2023-04-24T01:42:34;13.08;70.77
69324;DHT22;56470;47.350;8.718;2023-04-24T01:45:00;13.11;70.63
69324;DHT22;56470;47.350;8.718;2023-04-24T01:47:27;13.12;70.56
69324;DHT22;56470;47.350;8.718;2023-04-24T01:49:52;13.14;70.43
69324;DHT22;56470;47.350;8.718;2023-04-24T01:52:18;13.16;70.29
69324;DHT22;56470;47.350;8.718;2023-04-24T01:54:44;13.18;70.46
69324;DHT22;56470;47.350;8.718;2023-04-24T01:57:09;13.23;70.42
69324;DHT22;56470;47.350;8.718;2023-04-24T01:59:35;13.25;70.24
69324;DHT22;56470;47.350;8.718;2023-04-24T02:02:02;13.18;69.83
69324;DHT22;56470;47.350;8.718;2023-04-24T02:04:27;13.11;69.87
69324;DHT22;56470;47.350;8.718;2023-04-24T02:06:53;13.09;69.93
69324;DHT22;56470;47.350;8.718;2023-04-24T02:09:21;13.15;69.98
69324;DHT22;56470;47.350;8.718;2023-04-24T02:11:47;13.20;69.89
69324;DHT22;56470;47.350;8.718;2023-04-24T02:14:12;13.27;69.77
69324;DHT22;56470;47.350;8.718;2023-04-24T02:16:37;13.32;69.60
69324;DHT22;56470;47.350;8.718;2023-04-24T02:19:03;13.29;69.33
69324;DHT22;56470;47.350;8.718;2023-04-24T02:21:28;13.29;69.15
69324;DHT22;56470;47.350;8.718;2023-04-24T02:23:55;13.26;68.99
69324;DHT22;56470;47.350;8.718;2023-04-24T02:26:21;13.20;68.92
69324;DHT22;56470;47.350;8.718;2023-04-24T02:28:46;13.18;68.88
69324;DHT22;56470;47.350;8.718;2023-04-24T02:31:11;13.11;68.87
69324;DHT22;56470;47.350;8.718;2023-04-24T02:33:37;13.11;68.75
69324;DHT22;56470;47.350;8.718;2023-04-24T02:36:02;13.06;68.84
69324;DHT22;56470;47.350;8.718;2023-04-24T02:38:28;13.11;68.82
69324;DHT22;56470;47.350;8.718;2023-04-24T02:40:54;13.11;68.96
69324;DHT22;56470;47.350;8.718;2023-04-24T02:43:19;13.18;68.84
69324;DHT22;56470;47.350;8.718;2023-04-24T02:45:45;13.22;68.79
69324;DHT22;56470;47.350;8.718;2023-04-24T02:48:10;13.26;68.71
69324;DHT22;56470;47.350;8.718;2023-04-24T02:50:36;13.32;68.53
69324;DHT22;56470;47.350;8.718;2023-04-24T02:53:01;13.32;68.53
69324;DHT22;56470;47.350;8.718;2023-04-24T02:55:26;13.33;68.53
69324;DHT22;56470;47.350;8.718;2023-04-24T02:57:55;13.33;68.35
69324;DHT22;56470;47.350;8.718;2023-04-24T03:00:20;13.29;68.29
69324;DHT22;56470;47.350;8.718;2023-04-24T03:02:46;13.27;68.36
69324;DHT22;56470;47.350;8.718;2023-04-24T03:05:11;13.30;68.40
69324;DHT22;56470;47.350;8.718;2023-04-24T03:07:39;13.32;68.37
69324;DHT22;56470;47.350;8.718;2023-04-24T03:10:05;13.27;68.30
69324;DHT22;56470;47.350;8.718;2023-04-24T03:12:31;13.25;68.41
69324;DHT22;56470;47.350;8.718;2023-04-24T03:14:57;13.22;68.14
69324;DHT22;56470;47.350;8.718;2023-04-24T03:17:22;13.18;68.24
69324;DHT22;56470;47.350;8.718;2023-04-24T03:19:47;13.06;68.46
69324;DHT22;56470;47.350;8.718;2023-04-24T03:22:13;13.05;68.57
69324;DHT22;56470;47.350;8.718;2023-04-24T03:24:38;13.01;68.42
69324;DHT22;56470;47.350;8.718;2023-04-24T03:27:03;12.96;68.49
69324;DHT22;56470;47.350;8.718;2023-04-24T03:29:29;12.94;68.41
69324;DHT22;56470;47.350;8.718;2023-04-24T03:31:54;12.88;68.46
69324;DHT22;56470;47.350;8.718;2023-04-24T03:34:20;12.84;68.51
69324;DHT22;56470;47.350;8.718;2023-04-24T03:36:45;12.85;68.61
69324;DHT22;56470;47.350;8.718;2023-04-24T03:39:12;12.84;68.63
69324;DHT22;56470;47.350;8.718;2023-04-24T03:41:38;12.87;68.48
69324;DHT22;56470;47.350;8.718;2023-04-24T03:44:03;12.88;68.39
69324;DHT22;56470;47.350;8.718;2023-04-24T03:46:28;12.85;68.29
69324;DHT22;56470;47.350;8.718;2023-04-24T03:48:54;12.84;68.38
69324;DHT22;56470;47.350;8.718;2023-04-24T03:51:20;12.85;68.35
69324;DHT22;56470;47.350;8.718;2023-04-24T03:53:45;12.85;68.20
69324;DHT22;56470;47.350;8.718;2023-04-24T03:56:11;12.81;68.04
69324;DHT22;56470;47.350;8.718;2023-04-24T03:58:36;12.74;67.73
69324;DHT22;56470;47.350;8.718;2023-04-24T04:01:01;12.67;67.64
69324;DHT22;56470;47.350;8.718;2023-04-24T04:03:27;12.63;67.82
69324;DHT22;56470;47.350;8.718;2023-04-24T04:05:53;12.65;67.76
69324;DHT22;56470;47.350;8.718;2023-04-24T04:08:19;12.65;67.73
69324;DHT22;56470;47.350;8.718;2023-04-24T04:10:54;12.63;67.57
69324;DHT22;56470;47.350;8.718;2023-04-24T04:13:22;12.65;67.56
69324;DHT22;56470;47.350;8.718;2023-04-24T04:15:58;12.63;67.35
69324;DHT22;56470;47.350;8.718;2023-04-24T04:18:23;12.59;67.32
69324;DHT22;56470;47.350;8.718;2023-04-24T04:21:47;12.54;66.78
69324;DHT22;56470;47.350;8.718;2023-04-24T04:23:58;12.56;67.38
69324;DHT22;56470;47.350;8.718;2023-04-24T04:26:24;12.61;67.25
69324;DHT22;56470;47.350;8.718;2023-04-24T04:28:51;12.63;67.29
69324;DHT22;56470;47.350;8.718;2023-04-24T04:31:16;12.64;67.14
69324;DHT22;56470;47.350;8.718;2023-04-24T04:33:42;12.67;66.94
69324;DHT22;56470;47.350;8.718;2023-04-24T04:36:07;12.70;67.09
69324;DHT22;56470;47.350;8.718;2023-04-24T04:38:33;12.68;66.58
69324;DHT22;56470;47.350;8.718;2023-04-24T04:41:00;12.70;66.83
69324;DHT22;56470;47.350;8.718;2023-04-24T04:43:25;12.71;66.88
69324;DHT22;56470;47.350;8.718;2023-04-24T04:45:51;12.76;66.69
69324;DHT22;56470;47.350;8.718;2023-04-24T04:48:17;12.77;66.64
69324;DHT22;56470;47.350;8.718;2023-04-24T04:50:43;12.73;66.78
69324;DHT22;56470;47.350;8.718;2023-04-24T04:53:09;12.76;66.85
69324;DHT22;56470;47.350;8.718;2023-04-24T04:55:37;12.70;66.68
69324;DHT22;56470;47.350;8.718;2023-04-24T04:58:02;12.68;67.01
69324;DHT22;56470;47.350;8.718;2023-04-24T05:00:28;12.63;67.17
69324;DHT22;56470;47.350;8.718;2023-04-24T05:02:58;12.54;67.45
69324;DHT22;56470;47.350;8.718;2023-04-24T05:05:24;12.54;67.70
69324;DHT22;56470;47.350;8.718;2023-04-24T05:07:49;12.61;67.76
69324;DHT22;56470;47.350;8.718;2023-04-24T05:10:14;12.67;67.85
69324;DHT22;56470;47.350;8.718;2023-04-24T05:12:40;12.73;67.91
69324;DHT22;56470;47.350;8.718;2023-04-24T05:15:05;12.77;67.89
69324;DHT22;56470;47.350;8.718;2023-04-24T05:17:31;12.80;67.78
69324;DHT22;56470;47.350;8.718;2023-04-24T05:19:56;12.77;67.71
69324;DHT22;56470;47.350;8.718;2023-04-24T05:22:21;12.68;68.03
69324;DHT22;56470;47.350;8.718;2023-04-24T05:24:47;12.61;68.39
69324;DHT22;56470;47.350;8.718;2023-04-24T05:27:13;12.57;68.74
69324;DHT22;56470;47.350;8.718;2023-04-24T05:29:39;12.57;69.21
69324;DHT22;56470;47.350;8.718;2023-04-24T05:32:05;12.63;69.34
69324;DHT22;56470;47.350;8.718;2023-04-24T05:34:30;12.65;69.52
69324;DHT22;56470;47.350;8.718;2023-04-24T05:36:55;12.68;69.52
69324;DHT22;56470;47.350;8.718;2023-04-24T05:39:21;12.70;69.75
69324;DHT22;56470;47.350;8.718;2023-04-24T05:41:46;12.68;69.77
69324;DHT22;56470;47.350;8.718;2023-04-24T05:44:11;12.64;70.17
69324;DHT22;56470;47.350;8.718;2023-04-24T05:46:37;12.63;70.35
69324;DHT22;56470;47.350;8.718;2023-04-24T05:49:02;12.59;70.44
69324;DHT22;56470;47.350;8.718;2023-04-24T05:51:28;12.64;70.59
69324;DHT22;56470;47.350;8.718;2023-04-24T05:53:53;12.65;70.58
69324;DHT22;56470;47.350;8.718;2023-04-24T05:56:18;12.68;70.57
69324;DHT22;56470;47.350;8.718;2023-04-24T05:58:45;12.64;70.66
69324;DHT22;56470;47.350;8.718;2023-04-24T06:01:11;12.61;70.92
69324;DHT22;56470;47.350;8.718;2023-04-24T06:03:38;12.65;71.15
69324;DHT22;56470;47.350;8.718;2023-04-24T06:06:03;12.63;70.79
69324;DHT22;56470;47.350;8.718;2023-04-24T06:08:29;12.63;70.63
69324;DHT22;56470;47.350;8.718;2023-04-24T06:10:54;12.57;70.89
69324;DHT22;56470;47.350;8.718;2023-04-24T06:13:19;12.56;70.61
69324;DHT22;56470;47.350;8.718;2023-04-24T06:15:45;12.59;70.62
69324;DHT22;56470;47.350;8.718;2023-04-24T06:18:10;12.60;70.70
69324;DHT22;56470;47.350;8.718;2023-04-24T06:20:36;12.68;70.65
69324;DHT22;56470;47.350;8.718;2023-04-24T06:23:01;12.73;70.63
69324;DHT22;56470;47.350;8.718;2023-04-24T06:25:27;12.74;70.53
69324;DHT22;56470;47.350;8.718;2023-04-24T06:27:54;12.70;70.50
69324;DHT22;56470;47.350;8.718;2023-04-24T06:30:19;12.68;70.56
69324;DHT22;56470;47.350;8.718;2023-04-24T06:32:44;12.61;70.88
69324;DHT22;56470;47.350;8.718;2023-04-24T06:35:10;12.60;70.89
69324;DHT22;56470;47.350;8.718;2023-04-24T06:37:36;12.59;70.87
69324;DHT22;56470;47.350;8.718;2023-04-24T06:40:02;12.56;71.03
69324;DHT22;56470;47.350;8.718;2023-04-24T06:42:27;12.57;71.25
69324;DHT22;56470;47.350;8.718;2023-04-24T06:44:52;12.61;71.12
69324;DHT22;56470;47.350;8.718;2023-04-24T06:47:18;12.64;71.00
69324;DHT22;56470;47.350;8.718;2023-04-24T06:49:43;12.67;70.88
69324;DHT22;56470;47.350;8.718;2023-04-24T06:52:09;12.71;70.91
69324;DHT22;56470;47.350;8.718;2023-04-24T06:54:34;12.73;71.01
69324;DHT22;56470;47.350;8.718;2023-04-24T06:57:00;12.81;70.86
69324;DHT22;56470;47.350;8.718;2023-04-24T06:59:28;12.89;70.69
69324;DHT22;56470;47.350;8.718;2023-04-24T07:01:54;12.95;70.53
69324;DHT22;56470;47.350;8.718;2023-04-24T07:04:20;13.02;70.54
69324;DHT22;56470;47.350;8.718;2023-04-24T07:06:45;13.15;70.55
69324;DHT22;56470;47.350;8.718;2023-04-24T07:09:11;13.27;70.09
69324;DHT22;56470;47.350;8.718;2023-04-24T07:11:38;13.42;69.72
69324;DHT22;56470;47.350;8.718;2023-04-24T07:14:05;13.54;69.47
69324;DHT22;56470;47.350;8.718;2023-04-24T07:16:31;13.68;69.02
69324;DHT22;56470;47.350;8.718;2023-04-24T07:18:56;13.77;68.70
69324;DHT22;56470;47.350;8.718;2023-04-24T07:21:22;13.82;68.22
69324;DHT22;56470;47.350;8.718;2023-04-24T07:23:50;13.82;68.02
69324;DHT22;56470;47.350;8.718;2023-04-24T07:26:16;13.85;67.93
69324;DHT22;56470;47.350;8.718;2023-04-24T07:28:41;13.91;67.50
69324;DHT22;56470;47.350;8.718;2023-04-24T07:31:07;13.87;67.28
69324;DHT22;56470;47.350;8.718;2023-04-24T07:33:33;13.82;67.17
69324;DHT22;56470;47.350;8.718;2023-04-24T07:35:59;13.78;67.01
69324;DHT22;56470;47.350;8.718;2023-04-24T07:38:24;13.74;66.62
69324;DHT22;56470;47.350;8.718;2023-04-24T07:40:51;13.70;66.64
69324;DHT22;56470;47.350;8.718;2023-04-24T07:43:16;13.68;66.94
69324;DHT22;56470;47.350;8.718;2023-04-24T07:45:42;13.70;67.02
69324;DHT22;56470;47.350;8.718;2023-04-24T07:48:07;13.71;66.88
69324;DHT22;56470;47.350;8.718;2023-04-24T07:50:34;13.71;66.91
69324;DHT22;56470;47.350;8.718;2023-04-24T07:52:59;13.61;66.39
69324;DHT22;56470;47.350;8.718;2023-04-24T07:55:25;13.51;66.76
69324;DHT22;56470;47.350;8.718;2023-04-24T07:57:51;13.49;67.02
69324;DHT22;56470;47.350;8.718;2023-04-24T08:00:16;13.39;67.09
69324;DHT22;56470;47.350;8.718;2023-04-24T08:02:42;13.33;67.19
69324;DHT22;56470;47.350;8.718;2023-04-24T08:05:07;13.35;67.32
69324;DHT22;56470;47.350;8.718;2023-04-24T08:07:33;13.32;67.46
69324;DHT22;56470;47.350;8.718;2023-04-24T08:09:58;13.39;67.60
69324;DHT22;56470;47.350;8.718;2023-04-24T08:12:25;13.54;67.07
69324;DHT22;56470;47.350;8.718;2023-04-24T08:14:50;13.77;67.29
69324;DHT22;56470;47.350;8.718;2023-04-24T08:17:16;13.94;66.50
69324;DHT22;56470;47.350;8.718;2023-04-24T08:19:42;14.05;66.20
69324;DHT22;56470;47.350;8.718;2023-04-24T08:22:12;14.05;64.92
69324;DHT22;56470;47.350;8.718;2023-04-24T08:24:38;13.97;63.67
69324;DHT22;56470;47.350;8.718;2023-04-24T08:27:03;13.71;64.02
69324;DHT22;56470;47.350;8.718;2023-04-24T08:29:28;13.44;64.21
69324;DHT22;56470;47.350;8.718;2023-04-24T08:31:54;13.25;64.59
69324;DHT22;56470;47.350;8.718;2023-04-24T08:34:20;13.11;64.79
69324;DHT22;56470;47.350;8.718;2023-04-24T08:36:46;12.96;65.20
69324;DHT22;56470;47.350;8.718;2023-04-24T08:39:11;12.89;65.28
69324;DHT22;56470;47.350;8.718;2023-04-24T08:41:37;12.85;65.36
69324;DHT22;56470;47.350;8.718;2023-04-24T08:44:03;12.74;65.08
69324;DHT22;56470;47.350;8.718;2023-04-24T08:46:29;12.70;65.52
69324;DHT22;56470;47.350;8.718;2023-04-24T08:48:58;12.71;65.60
69324;DHT22;56470;47.350;8.718;2023-04-24T08:51:26;12.70;65.44
69324;DHT22;56470;47.350;8.718;2023-04-24T08:53:54;12.65;65.32
69324;DHT22;56470;47.350;8.718;2023-04-24T08:56:21;12.64;65.31
69324;DHT22;56470;47.350;8.718;2023-04-24T08:58:50;12.67;65.52
69324;DHT22;56470;47.350;8.718;2023-04-24T09:01:19;12.70;65.70
69324;DHT22;56470;47.350;8.718;2023-04-24T09:03:46;12.74;65.35
69324;DHT22;56470;47.350;8.718;2023-04-24T09:06:13;12.80;65.17
69324;DHT22;56470;47.350;8.718;2023-04-24T09:08:39;12.80;65.29
69324;DHT22;56470;47.350;8.718;2023-04-24T09:11:06;12.87;65.35
69324;DHT22;56470;47.350;8.718;2023-04-24T09:13:31;12.88;65.15
69324;DHT22;56470;47.350;8.718;2023-04-24T09:15:57;12.92;65.19
69324;DHT22;56470;47.350;8.718;2023-04-24T09:18:22;12.98;65.37
69324;DHT22;56470;47.350;8.718;2023-04-24T09:21:07;13.11;65.21
69324;DHT22;56470;47.350;8.718;2023-04-24T09:23:33;13.35;65.58
69324;DHT22;56470;47.350;8.718;2023-04-24T09:26:00;13.54;65.36
69324;DHT22;56470;47.350;8.718;2023-04-24T09:28:30;13.67;65.01
69324;DHT22;56470;47.350;8.718;2023-04-24T09:33:31;13.87;64.47
69324;DHT22;56470;47.350;8.718;2023-04-24T09:35:56;13.91;63.72
69324;DHT22;56470;47.350;8.718;2023-04-24T09:38:31;13.91;63.14
69324;DHT22;56470;47.350;8.718;2023-04-24T09:40:59;13.85;63.05
69324;DHT22;56470;47.350;8.718;2023-04-24T09:43:27;13.73;62.91
69324;DHT22;56470;47.350;8.718;2023-04-24T09:45:55;13.70;63.37
69324;DHT22;56470;47.350;8.718;2023-04-24T09:48:29;13.73;63.07
69324;DHT22;56470;47.350;8.718;2023-04-24T09:50:55;13.68;63.32
69324;DHT22;56470;47.350;8.718;2023-04-24T09:53:24;13.70;63.36
69324;DHT22;56470;47.350;8.718;2023-04-24T09:55:50;13.79;63.26
69324;DHT22;56470;47.350;8.718;2023-04-24T09:58:18;13.95;63.13
69324;DHT22;56470;47.350;8.718;2023-04-24T10:00:49;14.04;62.42
69324;DHT22;56470;47.350;8.718;2023-04-24T10:03:17;14.08;61.82
69324;DHT22;56470;47.350;8.718;2023-04-24T10:05:46;14.18;62.02
69324;DHT22;56470;47.350;8.718;2023-04-24T10:08:12;14.28;61.75
69324;DHT22;56470;47.350;8.718;2023-04-24T10:10:42;14.44;61.49
69324;DHT22;56470;47.350;8.718;2023-04-24T10:13:09;14.55;60.88
69324;DHT22;56470;47.350;8.718;2023-04-24T10:15:36;14.63;60.48
69324;DHT22;56470;47.350;8.718;2023-04-24T10:18:04;14.70;60.40
69324;DHT22;56470;47.350;8.718;2023-04-24T10:20:32;14.78;60.08
69324;DHT22;56470;47.350;8.718;2023-04-24T10:23:00;14.87;60.19
69324;DHT22;56470;47.350;8.718;2023-04-24T10:25:27;14.98;59.84
69324;DHT22;56470;47.350;8.718;2023-04-24T10:27:58;15.01;59.53
69324;DHT22;56470;47.350;8.718;2023-04-24T10:30:29;15.06;59.42
69324;DHT22;56470;47.350;8.718;2023-04-24T10:32:59;15.11;59.35
69324;DHT22;56470;47.350;8.718;2023-04-24T10:35:24;15.13;59.32
69324;DHT22;56470;47.350;8.718;2023-04-24T10:37:58;15.22;58.44
69324;DHT22;56470;47.350;8.718;2023-04-24T10:40:31;15.25;58.02
69324;DHT22;56470;47.350;8.718;2023-04-24T10:42:57;15.26;58.10
69324;DHT22;56470;47.350;8.718;2023-04-24T10:45:23;15.23;58.14
69324;DHT22;56470;47.350;8.718;2023-04-24T10:50:42;15.23;55.74
69324;DHT22;56470;47.350;8.718;2023-04-24T10:53:13;15.29;57.93
69324;DHT22;56470;47.350;8.718;2023-04-24T10:55:43;15.35;57.62
69324;DHT22;56470;47.350;8.718;2023-04-24T10:58:09;15.36;57.62
69324;DHT22;56470;47.350;8.718;2023-04-24T11:00:39;15.37;57.29
69324;DHT22;56470;47.350;8.718;2023-04-24T11:03:25;15.37;57.29
69324;DHT22;56470;47.350;8.718;2023-04-24T11:06:07;15.35;55.83
69324;DHT22;56470;47.350;8.718;2023-04-24T11:08:43;15.29;55.53
69324;DHT22;56470;47.350;8.718;2023-04-24T11:11:11;15.29;56.89
69324;DHT22;56470;47.350;8.718;2023-04-24T11:16:27;15.29;55.93
69324;DHT22;56470;47.350;8.718;2023-04-24T11:21:48;15.11;56.36
69324;DHT22;56470;47.350;8.718;2023-04-24T11:27:19;15.05;54.20
69324;DHT22;56470;47.350;8.718;2023-04-24T11:29:47;15.11;56.58
69324;DHT22;56470;47.350;8.718;2023-04-24T11:32:17;15.12;56.23
69324;DHT22;56470;47.350;8.718;2023-04-24T11:34:49;15.09;55.90
69324;DHT22;56470;47.350;8.718;2023-04-24T11:37:15;15.01;55.70
69324;DHT22;56470;47.350;8.718;2023-04-24T11:39:40;14.96;56.03
69324;DHT22;56470;47.350;8.718;2023-04-24T11:42:07;14.89;55.96
69324;DHT22;56470;47.350;8.718;2023-04-24T11:44:33;14.85;56.53
69324;DHT22;56470;47.350;8.718;2023-04-24T11:46:59;14.83;56.59
69324;DHT22;56470;47.350;8.718;2023-04-24T11:49:25;14.84;56.42
69324;DHT22;56470;47.350;8.718;2023-04-24T11:51:55;14.85;56.59
69324;DHT22;56470;47.350;8.718;2023-04-24T11:54:20;14.89;56.48
69324;DHT22;56470;47.350;8.718;2023-04-24T11:56:47;14.89;55.94
69324;DHT22;56470;47.350;8.718;2023-04-24T11:59:12;14.95;55.82
69324;DHT22;56470;47.350;8.718;2023-04-24T12:01:47;14.92;54.34
69324;DHT22;56470;47.350;8.718;2023-04-24T12:04:14;14.88;55.72
69324;DHT22;56470;47.350;8.718;2023-04-24T12:06:39;14.95;55.73
69324;DHT22;56470;47.350;8.718;2023-04-24T12:09:04;15.02;55.79
69324;DHT22;56470;47.350;8.718;2023-04-24T12:11:30;15.08;55.83
69324;DHT22;56470;47.350;8.718;2023-04-24T12:13:56;15.12;55.77
69324;DHT22;56470;47.350;8.718;2023-04-24T12:16:21;15.20;55.50
69324;DHT22;56470;47.350;8.718;2023-04-24T12:18:46;15.25;55.39
69324;DHT22;56470;47.350;8.718;2023-04-24T12:21:22;15.26;53.40
69324;DHT22;56470;47.350;8.718;2023-04-24T12:23:48;15.25;54.85
69324;DHT22;56470;47.350;8.718;2023-04-24T12:26:18;15.23;54.81
69324;DHT22;56470;47.350;8.718;2023-04-24T12:28:46;15.25;55.18
69324;DHT22;56470;47.350;8.718;2023-04-24T12:31:12;15.20;54.85
69324;DHT22;56470;47.350;8.718;2023-04-24T12:33:37;15.23;55.12
69324;DHT22;56470;47.350;8.718;2023-04-24T12:36:03;15.29;55.04
69324;DHT22;56470;47.350;8.718;2023-04-24T12:38:30;15.30;54.98
69324;DHT22;56470;47.350;8.718;2023-04-24T12:41:09;15.28;54.03
69324;DHT22;56470;47.350;8.718;2023-04-24T12:43:35;15.22;54.74
69324;DHT22;56470;47.350;8.718;2023-04-24T12:46:01;15.20;54.64
69324;DHT22;56470;47.350;8.718;2023-04-24T12:48:27;15.13;54.70
69324;DHT22;56470;47.350;8.718;2023-04-24T12:50:52;15.13;55.09
69324;DHT22;56470;47.350;8.718;2023-04-24T12:53:18;15.08;54.85
69324;DHT22;56470;47.350;8.718;2023-04-24T12:55:43;15.06;55.09
69324;DHT22;56470;47.350;8.718;2023-04-24T12:58:10;15.08;55.05
69324;DHT22;56470;47.350;8.718;2023-04-24T13:00:35;15.11;54.92
69324;DHT22;56470;47.350;8.718;2023-04-24T13:03:01;15.11;55.07
69324;DHT22;56470;47.350;8.718;2023-04-24T13:05:26;15.08;54.83
69324;DHT22;56470;47.350;8.718;2023-04-24T13:07:51;15.09;54.98
69324;DHT22;56470;47.350;8.718;2023-04-24T13:10:17;15.11;54.47
69324;DHT22;56470;47.350;8.718;2023-04-24T13:12:42;15.12;54.58
69324;DHT22;56470;47.350;8.718;2023-04-24T13:15:10;15.16;54.63
69324;DHT22;56470;47.350;8.718;2023-04-24T13:17:35;15.13;54.17
69324;DHT22;56470;47.350;8.718;2023-04-24T13:20:01;15.13;54.32
69324;DHT22;56470;47.350;8.718;2023-04-24T13:22:26;15.15;54.38
69324;DHT22;56470;47.350;8.718;2023-04-24T13:24:52;15.12;54.44
69324;DHT22;56470;47.350;8.718;2023-04-24T13:27:17;15.16;54.50
69324;DHT22;56470;47.350;8.718;2023-04-24T13:29:43;15.18;53.90
69324;DHT22;56470;47.350;8.718;2023-04-24T13:32:08;15.15;53.79
69324;DHT22;56470;47.350;8.718;2023-04-24T13:34:34;15.11;53.49
69324;DHT22;56470;47.350;8.718;2023-04-24T13:37:00;15.12;53.68
69324;DHT22;56470;47.350;8.718;2023-04-24T13:39:25;15.09;53.41
69324;DHT22;56470;47.350;8.718;2023-04-24T13:41:51;15.06;53.44
69324;DHT22;56470;47.350;8.718;2023-04-24T13:44:17;15.08;53.69
69324;DHT22;56470;47.350;8.718;2023-04-24T13:46:45;15.11;53.51
69324;DHT22;56470;47.350;8.718;2023-04-24T13:49:14;15.12;53.59
69324;DHT22;56470;47.350;8.718;2023-04-24T13:51:40;15.08;52.76
69324;DHT22;56470;47.350;8.718;2023-04-24T13:54:05;15.12;53.17
69324;DHT22;56470;47.350;8.718;2023-04-24T13:56:30;15.13;53.51
69324;DHT22;56470;47.350;8.718;2023-04-24T13:58:56;15.18;53.42
69324;DHT22;56470;47.350;8.718;2023-04-24T14:01:21;15.23;53.13
69324;DHT22;56470;47.350;8.718;2023-04-24T14:03:51;15.28;53.13
69324;DHT22;56470;47.350;8.718;2023-04-24T14:06:20;15.33;53.12
69324;DHT22;56470;47.350;8.718;2023-04-24T14:08:45;15.30;52.54
69324;DHT22;56470;47.350;8.718;2023-04-24T14:11:11;15.28;52.74
69324;DHT22;56470;47.350;8.718;2023-04-24T14:13:37;15.22;52.77
69324;DHT22;56470;47.350;8.718;2023-04-24T14:16:05;15.15;52.98
69324;DHT22;56470;47.350;8.718;2023-04-24T14:18:31;15.11;53.15
69324;DHT22;56470;47.350;8.718;2023-04-24T14:20:56;15.09;53.49
69324;DHT22;56470;47.350;8.718;2023-04-24T14:23:21;15.02;53.71
69324;DHT22;56470;47.350;8.718;2023-04-24T14:25:47;15.01;53.60
69324;DHT22;56470;47.350;8.718;2023-04-24T14:28:16;15.01;53.86
69324;DHT22;56470;47.350;8.718;2023-04-24T14:30:41;14.98;53.85
69324;DHT22;56470;47.350;8.718;2023-04-24T14:33:07;14.94;53.91
69324;DHT22;56470;47.350;8.718;2023-04-24T14:35:32;14.92;53.82
69324;DHT22;56470;47.350;8.718;2023-04-24T14:37:59;14.81;53.99
69324;DHT22;56470;47.350;8.718;2023-04-24T14:40:24;14.75;54.58
69324;DHT22;56470;47.350;8.718;2023-04-24T14:42:49;14.78;54.93
69324;DHT22;56470;47.350;8.718;2023-04-24T14:45:15;14.78;55.26
69324;DHT22;56470;47.350;8.718;2023-04-24T14:47:40;14.78;55.48
69324;DHT22;56470;47.350;8.718;2023-04-24T14:50:07;14.75;55.61
69324;DHT22;56470;47.350;8.718;2023-04-24T14:52:33;14.73;55.43
69324;DHT22;56470;47.350;8.718;2023-04-24T14:54:58;14.74;55.63
69324;DHT22;56470;47.350;8.718;2023-04-24T14:57:23;14.75;55.70
69324;DHT22;56470;47.350;8.718;2023-04-24T14:59:49;14.73;55.86
69324;DHT22;56470;47.350;8.718;2023-04-24T15:02:14;14.80;56.05
69324;DHT22;56470;47.350;8.718;2023-04-24T15:04:40;14.83;55.83
69324;DHT22;56470;47.350;8.718;2023-04-24T15:07:05;14.83;55.42
69324;DHT22;56470;47.350;8.718;2023-04-24T15:09:30;14.78;55.65
69324;DHT22;56470;47.350;8.718;2023-04-24T15:11:57;14.78;55.74
69324;DHT22;56470;47.350;8.718;2023-04-24T15:14:23;14.75;55.81
69324;DHT22;56470;47.350;8.718;2023-04-24T15:16:48;14.74;55.94
69324;DHT22;56470;47.350;8.718;2023-04-24T15:19:13;14.75;56.26
69324;DHT22;56470;47.350;8.718;2023-04-24T15:21:39;14.77;56.06
69324;DHT22;56470;47.350;8.718;2023-04-24T15:24:06;14.77;55.85
69324;DHT22;56470;47.350;8.718;2023-04-24T15:26:32;14.87;56.92
69324;DHT22;56470;47.350;8.718;2023-04-24T15:28:57;14.98;55.60
69324;DHT22;56470;47.350;8.718;2023-04-24T15:31:22;15.02;55.23
69324;DHT22;56470;47.350;8.718;2023-04-24T15:33:48;14.98;55.06
69324;DHT22;56470;47.350;8.718;2023-04-24T15:36:14;14.96;54.97
69324;DHT22;56470;47.350;8.718;2023-04-24T15:38:40;14.95;55.04